createdAt,value
2023-02-03T00:02:30.075Z,100.00
2023-02-03T00:05:15.453Z,100.00
2023-02-03T00:08:00.798Z,100.00
2023-02-03T00:10:46.451Z,100.00
2023-02-03T00:13:31.609Z,100.00
2023-02-03T00:16:16.747Z,100.00
2023-02-03T00:19:02.617Z,100.00
2023-02-03T00:21:47.409Z,100.00
2023-02-03T00:24:32.257Z,100.00
2023-02-03T00:27:17.593Z,100.00
2023-02-03T00:30:02.560Z,100.00
2023-02-03T00:32:47.821Z,100.00
2023-02-03T00:35:32.759Z,100.00
2023-02-03T00:38:18.568Z,100.00
2023-02-03T00:41:03.837Z,100.00
2023-02-03T00:43:49.806Z,100.00
2023-02-03T00:46:34.848Z,100.00
2023-02-03T00:49:20.375Z,100.00
2023-02-03T00:52:05.483Z,100.00
2023-02-03T00:54:50.735Z,100.00
2023-02-03T00:57:35.873Z,100.00
2023-02-03T01:00:21.276Z,100.00
2023-02-03T01:03:06.492Z,100.00
2023-02-03T01:05:51.901Z,100.00
2023-02-03T01:08:37.131Z,100.00
2023-02-03T01:11:25.224Z,100.00
2023-02-03T01:14:10.315Z,100.00
2023-02-03T01:16:55.928Z,100.00
2023-02-03T01:19:40.907Z,100.00
2023-02-03T01:22:25.818Z,100.00
2023-02-03T01:25:11.304Z,100.00
2023-02-03T01:27:56.617Z,100.00
2023-02-03T01:30:42.024Z,100.00
2023-02-03T01:33:27.477Z,100.00
2023-02-03T01:36:13.117Z,100.00
2023-02-03T01:38:58.316Z,100.00
2023-02-03T01:41:43.736Z,100.00
2023-02-03T01:44:55.259Z,100.00
2023-02-03T01:47:48.346Z,100.00
2023-02-03T01:50:36.834Z,100.00
2023-02-03T01:53:21.989Z,100.00
2023-02-03T01:56:08.202Z,100.00
2023-02-03T01:58:53.970Z,100.00
2023-02-03T02:01:39.839Z,100.00
2023-02-03T02:04:34.214Z,100.00
2023-02-03T02:07:19.452Z,100.00
2023-02-03T02:10:05.444Z,100.00
2023-02-03T02:12:51.585Z,100.00
2023-02-03T02:15:56.251Z,100.00
2023-02-03T02:19:00.108Z,100.00
2023-02-03T02:21:54.669Z,100.00
2023-02-03T02:24:50.346Z,100.00
2023-02-03T02:27:59.850Z,100.00
2023-02-03T02:31:08.610Z,100.00
2023-02-03T02:34:04.725Z,100.00
2023-02-03T02:37:20.983Z,100.00
2023-02-03T02:40:24.231Z,100.00
2023-02-03T02:43:16.861Z,100.00
2023-02-03T02:46:08.981Z,100.00
2023-02-03T02:49:07.455Z,100.00
2023-02-03T02:51:53.741Z,100.00
2023-02-03T02:54:42.142Z,100.00
2023-02-03T02:57:30.346Z,100.00
2023-02-03T03:00:15.806Z,100.00
2023-02-03T03:03:15.515Z,100.00
2023-02-03T03:06:08.989Z,100.00
2023-02-03T03:09:06.038Z,100.00
2023-02-03T03:11:56.167Z,100.00
2023-02-03T03:14:45.620Z,100.00
2023-02-03T03:17:35.181Z,100.00
2023-02-03T03:20:25.726Z,100.00
2023-02-03T03:23:22.437Z,100.00
2023-02-03T03:26:19.989Z,100.00
2023-02-03T03:29:21.062Z,100.00
2023-02-03T03:32:06.442Z,100.00
2023-02-03T03:34:52.369Z,100.00
2023-02-03T03:37:49.633Z,100.00
2023-02-03T03:40:42.703Z,100.00
2023-02-03T03:43:33.027Z,100.00
2023-02-03T03:46:27.059Z,100.00
2023-02-03T03:49:13.651Z,100.00
2023-02-03T03:52:03.173Z,100.00
2023-02-03T03:54:50.275Z,100.00
2023-02-03T03:57:45.169Z,100.00
2023-02-03T04:00:33.749Z,100.00
2023-02-03T04:03:25.395Z,100.00
2023-02-03T04:06:12.165Z,100.00
2023-02-03T04:08:57.374Z,100.00
2023-02-03T04:11:42.493Z,100.00
2023-02-03T04:14:31.666Z,100.00
2023-02-03T04:17:16.829Z,100.00
2023-02-03T04:20:04.259Z,100.00
2023-02-03T04:22:50.197Z,100.00
2023-02-03T04:25:35.614Z,100.00
2023-02-03T04:28:21.039Z,100.00
2023-02-03T04:31:06.710Z,100.00
2023-02-03T04:33:52.103Z,100.00
2023-02-03T04:36:37.532Z,100.00
2023-02-03T04:39:22.943Z,100.00
2023-02-03T04:42:08.050Z,100.00
2023-02-03T04:44:53.253Z,100.00
2023-02-03T04:47:39.490Z,100.00
2023-02-03T04:50:25.671Z,100.00
2023-02-03T04:53:10.939Z,100.00
2023-02-03T04:55:56.434Z,100.00
2023-02-03T04:58:41.523Z,100.00
2023-02-03T05:01:26.849Z,100.00
2023-02-03T05:04:12.458Z,100.00
2023-02-03T05:06:57.702Z,100.00
2023-02-03T05:09:42.939Z,100.00
2023-02-03T05:12:28.202Z,100.00
2023-02-03T05:15:13.779Z,100.00
2023-02-03T05:17:58.681Z,100.00
2023-02-03T05:20:43.491Z,100.00
2023-02-03T05:23:29.176Z,100.00
2023-02-03T05:26:14.134Z,100.00
2023-02-03T05:28:59.109Z,100.00
2023-02-03T05:31:44.440Z,100.00
2023-02-03T05:34:29.562Z,100.00
2023-02-03T05:37:14.378Z,100.00
2023-02-03T05:39:59.191Z,100.00
2023-02-03T05:42:49.144Z,100.00
2023-02-03T05:45:34.626Z,100.00
2023-02-03T05:48:20.049Z,100.00
2023-02-03T05:51:05.846Z,100.00
2023-02-03T05:53:50.813Z,100.00
2023-02-03T05:56:35.953Z,100.00
2023-02-03T05:59:21.151Z,100.00
2023-02-03T06:02:06.714Z,100.00
2023-02-03T06:04:51.504Z,100.00
2023-02-03T06:07:36.709Z,100.00
2023-02-03T06:10:22.657Z,100.00
2023-02-03T06:13:15.236Z,100.00
2023-02-03T06:16:01.065Z,100.00
2023-02-03T06:18:46.090Z,100.00
2023-02-03T06:21:31.000Z,100.00
2023-02-03T06:24:16.282Z,100.00
2023-02-03T06:27:01.743Z,100.00
2023-02-03T06:29:46.698Z,100.00
2023-02-03T06:32:31.639Z,100.00
2023-02-03T06:35:17.450Z,100.00
2023-02-03T06:38:02.465Z,100.00
2023-02-03T06:40:48.439Z,100.00
2023-02-03T06:43:33.746Z,100.00
2023-02-03T06:46:19.468Z,100.00
2023-02-03T06:49:04.687Z,100.00
2023-02-03T06:51:49.975Z,100.00
2023-02-03T06:54:35.179Z,100.00
2023-02-03T06:57:20.684Z,100.00
2023-02-03T07:00:06.453Z,100.00
2023-02-03T07:02:56.722Z,100.00
2023-02-03T07:05:42.051Z,100.00
2023-02-03T07:08:27.449Z,100.00
2023-02-03T07:11:13.196Z,100.00
2023-02-03T07:13:58.797Z,100.00
2023-02-03T07:16:44.078Z,100.00
2023-02-03T07:19:29.482Z,100.00
2023-02-03T07:22:14.955Z,100.00
2023-02-03T07:25:00.000Z,100.00
2023-02-03T07:27:45.412Z,100.00
2023-02-03T07:30:31.197Z,100.00
2023-02-03T07:33:16.837Z,100.00
2023-02-03T07:36:02.025Z,100.00
2023-02-03T07:38:46.970Z,100.00
2023-02-03T07:41:32.237Z,100.00
2023-02-03T07:44:19.834Z,100.00
2023-02-03T07:47:04.948Z,100.00
2023-02-03T07:49:49.950Z,100.00
2023-02-03T07:52:34.921Z,100.00
2023-02-03T07:55:19.891Z,100.00
2023-02-03T07:58:05.718Z,100.00
2023-02-03T08:00:50.632Z,100.00
2023-02-03T08:03:35.660Z,100.00
2023-02-03T08:06:20.729Z,100.00
2023-02-03T08:09:05.969Z,100.00
2023-02-03T08:11:50.985Z,100.00
2023-02-03T08:14:36.138Z,100.00
2023-02-03T08:17:21.025Z,100.00
2023-02-03T08:20:07.285Z,100.00
2023-02-03T08:22:53.008Z,100.00
2023-02-03T08:25:37.962Z,100.00
2023-02-03T08:28:23.911Z,100.00
2023-02-03T08:31:10.443Z,100.00
2023-02-03T08:33:55.886Z,100.00
2023-02-03T08:36:41.191Z,100.00
2023-02-03T08:39:26.432Z,100.00
2023-02-03T08:42:11.296Z,100.00
2023-02-03T08:44:57.219Z,100.00
2023-02-03T08:47:42.212Z,100.00
2023-02-03T08:50:27.896Z,100.00
2023-02-03T08:53:13.031Z,100.00
2023-02-03T08:55:58.060Z,100.00
2023-02-03T08:58:43.011Z,100.00
2023-02-03T09:01:28.733Z,100.00
2023-02-03T09:04:16.269Z,100.00
2023-02-03T09:07:01.687Z,100.00
2023-02-03T09:09:47.472Z,100.00
2023-02-03T09:12:32.587Z,100.00
2023-02-03T09:15:18.215Z,100.00
2023-02-03T09:18:04.007Z,100.00
2023-02-03T09:20:48.892Z,100.00
2023-02-03T09:23:34.554Z,100.00
2023-02-03T09:26:19.716Z,100.00
2023-02-03T09:29:05.271Z,100.00
2023-02-03T09:31:51.717Z,100.00
2023-02-03T09:34:36.986Z,100.00
2023-02-03T09:37:22.241Z,100.00
2023-02-03T09:40:17.924Z,100.00
2023-02-03T09:43:21.058Z,100.00
2023-02-03T09:46:12.050Z,100.00
2023-02-03T09:49:02.616Z,100.00
2023-02-03T09:51:55.794Z,100.00
2023-02-03T09:55:00.366Z,100.00
2023-02-03T09:58:05.731Z,100.00
2023-02-03T10:00:54.292Z,100.00
2023-02-03T10:03:42.712Z,100.00
2023-02-03T10:06:41.696Z,100.00
2023-02-03T10:09:56.668Z,100.00
2023-02-03T10:12:52.617Z,100.00
2023-02-03T10:16:16.590Z,100.00
2023-02-03T10:19:09.295Z,100.00
2023-02-03T10:21:59.173Z,100.00
2023-02-03T10:25:15.968Z,100.00
2023-02-03T10:28:04.809Z,100.00
2023-02-03T10:31:20.331Z,100.00
2023-02-03T10:34:17.207Z,100.00
2023-02-03T10:37:11.134Z,100.00
2023-02-03T10:39:57.631Z,100.00
2023-02-03T10:42:46.309Z,100.00
2023-02-03T10:45:36.257Z,100.00
2023-02-03T10:48:23.003Z,100.00
2023-02-03T10:51:30.198Z,100.00
2023-02-03T10:54:33.316Z,100.00
2023-02-03T10:57:18.939Z,100.00
2023-02-03T11:19:05.802Z,100.00
2023-02-03T11:21:53.568Z,100.00
2023-02-03T11:24:41.715Z,100.00
2023-02-03T11:27:31.081Z,100.00
2023-02-03T11:30:24.525Z,100.00
2023-02-03T11:33:19.374Z,100.00
2023-02-03T11:36:04.967Z,100.00
2023-02-03T11:38:50.085Z,100.00
2023-02-03T11:41:38.879Z,100.00
2023-02-03T11:44:26.816Z,100.00
2023-02-03T11:47:14.831Z,100.00
2023-02-03T11:50:18.878Z,100.00
2023-02-03T11:53:23.985Z,100.00
2023-02-03T11:56:22.689Z,100.00
2023-02-03T11:59:25.993Z,100.00
2023-02-03T12:02:42.639Z,100.00
2023-02-03T12:05:27.991Z,100.00
2023-02-03T12:08:25.309Z,100.00
2023-02-03T12:11:38.949Z,100.00
2023-02-03T12:14:36.623Z,100.00
2023-02-03T12:17:42.599Z,100.00
2023-02-03T12:21:00.333Z,100.00
2023-02-03T12:24:09.506Z,100.00
2023-02-03T12:27:16.537Z,100.00
2023-02-03T12:30:03.980Z,100.00
2023-02-03T12:33:00.211Z,100.00
2023-02-03T12:35:52.078Z,100.00
2023-02-03T12:38:43.301Z,100.00
2023-02-03T12:41:34.347Z,100.00
2023-02-03T12:44:47.088Z,100.00
2023-02-03T12:47:50.989Z,100.00
2023-02-03T12:50:42.105Z,100.00
2023-02-03T12:53:34.469Z,100.00
2023-02-03T12:56:27.685Z,100.00
2023-02-03T12:59:23.439Z,100.00
2023-02-03T13:02:18.646Z,100.00
2023-02-03T13:05:27.750Z,100.00
2023-02-03T13:08:36.125Z,100.00
2023-02-03T13:11:28.628Z,100.00
2023-02-03T13:14:13.650Z,100.00
2023-02-03T13:17:08.328Z,100.00
2023-02-03T13:19:58.269Z,100.00
2023-02-03T13:22:43.131Z,100.00
2023-02-03T13:26:14.083Z,100.00
2023-02-03T13:29:23.844Z,100.00
2023-02-03T13:32:20.892Z,100.00
2023-02-03T13:35:21.698Z,100.00
2023-02-03T13:38:24.859Z,100.00
2023-02-03T13:41:19.334Z,100.00
2023-02-03T13:44:07.638Z,100.00
2023-02-03T13:46:53.862Z,100.00
2023-02-03T13:49:39.961Z,100.00
2023-02-03T13:52:32.969Z,100.00
2023-02-03T13:55:27.940Z,100.00
2023-02-03T13:58:37.957Z,100.00
2023-02-03T14:01:35.674Z,100.00
2023-02-03T14:04:24.235Z,100.00
2023-02-03T14:07:38.067Z,100.00
2023-02-03T14:10:23.505Z,100.00
2023-02-03T14:13:20.829Z,100.00
2023-02-03T14:16:25.498Z,100.00
2023-02-03T14:19:12.254Z,100.00
2023-02-03T14:22:03.964Z,100.00
2023-02-03T14:24:49.967Z,100.00
2023-02-03T14:27:35.214Z,100.00
2023-02-03T14:30:20.749Z,100.00
2023-02-03T14:33:05.947Z,100.00
2023-02-03T14:35:51.102Z,100.00
2023-02-03T14:38:36.290Z,100.00
2023-02-03T14:41:46.397Z,100.00
2023-02-03T14:44:59.307Z,100.00
2023-02-03T14:47:44.356Z,99.90
2023-02-03T14:50:44.241Z,98.85
2023-02-03T14:53:47.655Z,98.48
2023-02-03T14:56:54.277Z,98.22
2023-02-03T14:59:56.791Z,97.92
2023-02-03T15:03:07.136Z,97.24
2023-02-03T15:06:01.292Z,96.84
2023-02-03T15:08:48.300Z,96.60
2023-02-03T15:11:34.275Z,96.55
2023-02-03T15:14:28.413Z,96.92
2023-02-03T15:17:24.098Z,96.59
2023-02-03T15:20:37.820Z,96.04
2023-02-03T15:23:30.498Z,95.81
2023-02-03T15:26:22.259Z,95.35
2023-02-03T15:29:19.941Z,95.34
2023-02-03T15:32:16.071Z,94.64
2023-02-03T15:35:04.829Z,93.81
2023-02-03T15:37:55.597Z,92.94
2023-02-03T15:40:44.875Z,91.34
2023-02-03T15:43:38.427Z,90.25
2023-02-03T15:46:30.793Z,89.55
2023-02-03T15:49:22.347Z,88.01
2023-02-03T15:52:14.108Z,87.09
2023-02-03T15:55:12.579Z,86.56
2023-02-03T15:57:58.118Z,86.30
2023-02-03T16:00:47.346Z,86.04
2023-02-03T16:03:38.845Z,86.10
2023-02-03T16:06:27.171Z,86.51
2023-02-03T16:09:30.663Z,87.26
2023-02-03T16:12:30.436Z,87.83
2023-02-03T16:15:24.336Z,87.94
2023-02-03T16:18:17.538Z,88.98
2023-02-03T16:21:04.490Z,89.64
2023-02-03T16:23:50.047Z,89.81
2023-02-03T16:26:35.217Z,90.01
2023-02-03T16:29:20.707Z,89.93
2023-02-03T16:32:18.873Z,89.60
2023-02-03T16:35:10.183Z,89.49
2023-02-03T16:37:55.500Z,89.58
2023-02-03T16:40:41.060Z,89.48
2023-02-03T16:43:26.194Z,89.89
2023-02-03T16:46:12.606Z,90.04
2023-02-03T16:48:58.077Z,90.48
2023-02-03T16:51:43.558Z,90.77
2023-02-03T16:54:29.009Z,91.16
2023-02-03T16:57:14.495Z,91.48
2023-02-03T17:00:00.094Z,91.59
2023-02-03T17:02:45.209Z,91.35
2023-02-03T17:05:30.640Z,91.67
2023-02-03T17:08:18.714Z,91.38
2023-02-03T17:11:08.091Z,91.34
2023-02-03T17:13:53.121Z,91.10
2023-02-03T17:16:38.534Z,90.96
2023-02-03T17:19:25.093Z,90.89
2023-02-03T17:22:10.156Z,90.62
2023-02-03T17:24:55.001Z,90.64
2023-02-03T17:27:40.067Z,90.61
2023-02-03T17:30:25.256Z,90.83
2023-02-03T17:33:11.148Z,90.99
2023-02-03T17:36:04.771Z,91.37
2023-02-03T17:54:13.787Z,93.55
2023-02-03T17:56:59.060Z,94.08
2023-02-03T17:59:44.505Z,93.78
2023-02-03T18:02:30.125Z,94.24
2023-02-03T18:05:15.446Z,94.72
2023-02-03T18:08:05.899Z,94.90
2023-02-03T18:10:59.066Z,95.00
2023-02-03T18:13:47.335Z,95.11
2023-02-03T18:16:33.899Z,95.30
2023-02-03T18:19:19.023Z,95.60
2023-02-03T18:22:03.927Z,95.46
2023-02-03T18:24:48.666Z,95.35
2023-02-03T18:27:33.985Z,95.47
2023-02-03T18:30:19.090Z,95.42
2023-02-03T18:33:04.165Z,95.46
2023-02-03T18:35:49.173Z,95.18
2023-02-03T18:38:35.201Z,95.22
2023-02-03T18:41:22.988Z,94.68
2023-02-03T18:44:08.796Z,94.72
2023-02-03T18:46:54.529Z,95.16
2023-02-03T18:49:39.885Z,94.99
2023-02-03T18:52:24.624Z,94.91
2023-02-03T18:55:09.860Z,95.14
2023-02-03T18:57:54.924Z,94.88
2023-02-03T19:00:40.207Z,94.93
2023-02-03T19:03:25.568Z,95.00
2023-02-03T19:06:11.164Z,95.12
2023-02-03T19:08:58.441Z,94.82
2023-02-03T19:11:46.613Z,94.52
2023-02-03T19:14:31.879Z,94.65
2023-02-03T19:17:17.568Z,94.41
2023-02-03T19:20:02.890Z,94.58
2023-02-03T19:22:48.245Z,94.56
2023-02-03T19:25:35.051Z,94.65
2023-02-03T19:28:30.459Z,94.81
2023-02-03T19:31:17.134Z,94.89
2023-02-03T19:34:02.691Z,94.63
2023-02-03T19:36:48.159Z,94.62
2023-02-03T19:39:33.189Z,94.41
2023-02-03T19:42:18.886Z,94.18
2023-02-03T19:45:05.037Z,94.23
2023-02-03T19:47:49.909Z,94.26
2023-02-03T19:50:34.858Z,93.88
2023-02-03T19:53:20.078Z,93.61
2023-02-03T19:56:05.623Z,94.10
2023-02-03T19:58:52.223Z,93.60
2023-02-03T20:01:37.600Z,93.86
2023-02-03T20:04:22.657Z,93.49
2023-02-03T20:07:08.000Z,93.86
2023-02-03T20:09:52.925Z,93.75
2023-02-03T20:12:38.270Z,94.32
2023-02-03T20:15:23.794Z,94.20
2023-02-03T20:18:09.183Z,94.58
2023-02-03T20:20:55.991Z,94.43
2023-02-03T20:23:41.009Z,94.67
2023-02-03T20:26:25.788Z,94.82
2023-02-03T20:29:11.116Z,95.04
2023-02-03T20:31:56.348Z,95.39
2023-02-03T20:34:41.788Z,95.85
2023-02-03T20:37:26.885Z,96.27
2023-02-03T20:40:17.330Z,96.70
2023-02-03T20:43:15.792Z,96.79
2023-02-03T20:46:00.860Z,96.59
2023-02-03T20:48:46.368Z,97.40
2023-02-03T20:51:31.708Z,97.30
2023-02-03T20:54:21.946Z,97.82
2023-02-03T20:57:13.546Z,98.21
2023-02-03T20:59:58.796Z,98.21
2023-02-03T21:02:45.525Z,98.56
2023-02-03T21:05:37.717Z,98.72
2023-02-03T21:08:22.698Z,98.69
2023-02-03T21:11:22.175Z,99.25
2023-02-03T21:14:19.638Z,99.64
2023-02-03T21:17:18.202Z,100.00
2023-02-03T21:20:19.108Z,100.00
2023-02-03T21:23:10.622Z,100.00
2023-02-03T21:25:55.619Z,100.00
2023-02-03T21:28:40.927Z,100.00
2023-02-03T21:31:28.429Z,100.00
2023-02-03T21:34:34.671Z,100.00
2023-02-03T21:37:20.060Z,100.00
2023-02-03T21:40:21.068Z,100.00
2023-02-03T21:43:17.119Z,100.00
2023-02-03T21:46:02.470Z,100.00
2023-02-03T21:48:52.904Z,100.00
2023-02-03T21:51:39.075Z,100.00
2023-02-03T21:54:29.008Z,100.00
2023-02-03T21:57:14.971Z,100.00
2023-02-03T22:00:00.033Z,100.00
2023-02-03T22:02:58.814Z,100.00
2023-02-03T22:05:43.921Z,100.00
2023-02-03T22:08:33.292Z,100.00
2023-02-03T22:11:19.809Z,100.00
2023-02-03T22:14:05.202Z,100.00
2023-02-03T22:16:50.601Z,100.00
2023-02-03T22:19:35.654Z,100.00
2023-02-03T22:22:20.884Z,100.00
2023-02-03T22:25:06.714Z,100.00
2023-02-03T22:27:53.093Z,100.00
2023-02-03T22:30:38.888Z,100.00
2023-02-03T22:33:24.442Z,100.00
2023-02-03T22:36:10.223Z,100.00
2023-02-03T22:38:54.946Z,100.00
2023-02-03T22:41:40.422Z,100.00
2023-02-03T22:44:25.298Z,100.00
2023-02-03T22:47:10.842Z,100.00
2023-02-03T22:49:56.170Z,100.00
2023-02-03T22:52:41.618Z,100.00
2023-02-03T22:55:26.900Z,100.00
2023-02-03T22:58:12.038Z,100.00
2023-02-03T23:00:57.385Z,100.00
2023-02-03T23:03:42.808Z,100.00
2023-02-03T23:06:28.156Z,100.00
2023-02-03T23:09:13.718Z,100.00
2023-02-03T23:11:58.890Z,100.00
2023-02-03T23:14:44.515Z,100.00
2023-02-03T23:17:29.459Z,100.00
2023-02-03T23:20:16.773Z,100.00
2023-02-03T23:23:01.773Z,100.00
2023-02-03T23:25:47.173Z,100.00
2023-02-03T23:28:32.113Z,100.00
2023-02-03T23:31:18.078Z,100.00
2023-02-03T23:34:03.461Z,100.00
2023-02-03T23:36:48.709Z,100.00
2023-02-03T23:39:33.576Z,100.00
2023-02-03T23:42:18.996Z,100.00
2023-02-03T23:45:04.903Z,100.00
2023-02-03T23:47:50.381Z,100.00
2023-02-03T23:50:35.952Z,100.00
2023-02-03T23:53:21.053Z,100.00
2023-02-03T23:56:06.048Z,100.00
2023-02-03T23:58:51.348Z,100.00
